createdAt,value
2017-11-01T00:00:38.142Z,51.7
2017-11-01T00:01:39.558Z,51.5
2017-11-01T00:02:40.976Z,51.5
2017-11-01T00:03:42.386Z,51.7
2017-11-01T00:04:43.806Z,51.5
2017-11-01T00:05:45.224Z,52.1
2017-11-01T00:06:46.645Z,51.7
2017-11-01T00:07:48.060Z,51.5
2017-11-01T00:08:49.478Z,51.8
2017-11-01T00:09:50.888Z,51.9
2017-11-01T00:10:52.306Z,51.9
2017-11-01T00:11:53.722Z,51.7
2017-11-01T00:12:55.137Z,51.7
2017-11-01T00:13:56.553Z,52.2
2017-11-01T00:14:57.976Z,52.3
2017-11-01T00:15:59.383Z,51.7
2017-11-01T00:17:00.799Z,52.3
2017-11-01T00:18:02.212Z,52.0
2017-11-01T00:19:03.629Z,52.2
2017-11-01T00:20:05.045Z,52.1
2017-11-01T00:21:06.459Z,52.1
2017-11-01T00:22:07.878Z,52.2
2017-11-01T00:23:09.295Z,51.9
2017-11-01T00:24:10.711Z,52.0
2017-11-01T00:25:12.124Z,52.1
2017-11-01T00:26:13.541Z,52.1
2017-11-01T00:27:14.957Z,51.8
2017-11-01T00:28:16.371Z,52.1
2017-11-01T00:29:17.788Z,52.3
2017-11-01T00:30:19.202Z,52.3
2017-11-01T00:31:20.624Z,52.4
2017-11-01T00:32:22.042Z,52.5
2017-11-01T00:33:23.463Z,52.2
2017-11-01T00:34:24.877Z,52.3
2017-11-01T00:35:26.315Z,52.3
2017-11-01T00:36:27.728Z,52.4
2017-11-01T00:37:29.143Z,52.4
2017-11-01T00:38:30.556Z,52.5
2017-11-01T00:39:31.972Z,52.5
2017-11-01T00:40:33.387Z,52.5
2017-11-01T00:41:34.802Z,52.5
2017-11-01T00:42:36.217Z,52.4
2017-11-01T00:43:37.636Z,52.8
2017-11-01T00:44:39.045Z,52.3
2017-11-01T00:45:40.462Z,52.7
2017-11-01T00:46:41.879Z,52.4
2017-11-01T00:47:43.297Z,52.6
2017-11-01T00:48:44.712Z,52.7
2017-11-01T00:49:46.131Z,52.6
2017-11-01T00:50:47.548Z,52.5
2017-11-01T00:51:48.966Z,52.3
2017-11-01T00:52:50.381Z,52.7
2017-11-01T00:53:51.797Z,52.6
2017-11-01T00:54:53.212Z,52.4
2017-11-01T00:55:54.629Z,52.6
2017-11-01T00:56:56.046Z,52.7
2017-11-01T00:57:57.480Z,52.6
2017-11-01T00:58:58.878Z,53.1
2017-11-01T01:00:00.293Z,53.3
2017-11-01T01:01:01.707Z,53.4
2017-11-01T01:02:03.125Z,53.4
2017-11-01T01:03:04.540Z,53.4
2017-11-01T01:04:05.956Z,53.4
2017-11-01T01:05:07.373Z,53.4
2017-11-01T01:06:08.787Z,53.5
2017-11-01T01:07:10.204Z,53.4
2017-11-01T01:08:11.633Z,53.0
2017-11-01T01:09:13.050Z,53.2
2017-11-01T01:10:14.463Z,53.0
2017-11-01T01:11:15.877Z,53.2
2017-11-01T01:12:17.292Z,53.1
2017-11-01T01:13:18.708Z,53.0
2017-11-01T01:14:20.128Z,53.1
2017-11-01T01:15:21.540Z,53.2
2017-11-01T01:16:22.955Z,53.2
2017-11-01T01:17:24.373Z,53.1
2017-11-01T01:18:25.807Z,53.1
2017-11-01T01:19:27.230Z,53.4
2017-11-01T01:20:28.643Z,53.8
2017-11-01T01:21:30.059Z,54.0
2017-11-01T01:22:31.473Z,53.3
2017-11-01T01:23:32.886Z,54.0
2017-11-01T01:24:34.300Z,53.6
2017-11-01T01:25:35.718Z,53.8
2017-11-01T01:26:37.138Z,53.9
2017-11-01T01:27:38.549Z,53.8
2017-11-01T01:28:39.967Z,53.6
2017-11-01T01:29:41.410Z,53.8
2017-11-01T01:30:42.836Z,53.9
2017-11-01T01:31:44.251Z,53.8
2017-11-01T01:32:45.667Z,53.8
2017-11-01T01:33:47.080Z,53.5
2017-11-01T01:34:48.495Z,53.8
2017-11-01T01:35:49.909Z,53.8
2017-11-01T01:36:51.313Z,53.7
2017-11-01T01:37:52.742Z,53.6
2017-11-01T01:38:54.156Z,53.6
2017-11-01T01:39:55.568Z,53.6
2017-11-01T01:40:56.984Z,53.7
2017-11-01T01:41:58.404Z,53.7
2017-11-01T01:42:59.818Z,53.6
2017-11-01T01:44:01.235Z,53.7
2017-11-01T01:45:02.656Z,54.1
2017-11-01T01:46:04.072Z,53.7
2017-11-01T01:47:05.488Z,54.1
2017-11-01T01:48:06.902Z,53.9
2017-11-01T01:49:08.320Z,53.5
2017-11-01T01:50:09.732Z,54.3
2017-11-01T01:51:11.157Z,53.5
2017-11-01T01:52:12.576Z,53.7
2017-11-01T01:53:13.991Z,54.0
2017-11-01T01:54:15.413Z,54.2
2017-11-01T01:55:16.832Z,54.2
2017-11-01T01:56:18.248Z,54.1
2017-11-01T01:57:19.668Z,54.1
2017-11-01T01:58:21.087Z,53.7
2017-11-01T01:59:22.503Z,53.9
2017-11-01T02:00:23.914Z,53.8
2017-11-01T02:01:25.328Z,53.3
2017-11-01T02:02:26.743Z,54.0
2017-11-01T02:03:28.158Z,54.2
2017-11-01T02:04:29.580Z,53.5
2017-11-01T02:05:30.994Z,53.5
2017-11-01T02:06:32.408Z,53.7
2017-11-01T02:07:33.822Z,53.9
2017-11-01T02:08:35.239Z,54.0
2017-11-01T02:09:36.656Z,53.8
2017-11-01T02:10:38.069Z,53.6
2017-11-01T02:11:39.481Z,54.0
2017-11-01T02:12:40.898Z,54.0
2017-11-01T02:13:42.310Z,54.0
2017-11-01T02:14:43.729Z,54.0
2017-11-01T02:15:45.141Z,54.0
2017-11-01T02:16:46.557Z,53.8
2017-11-01T02:17:47.973Z,53.9
2017-11-01T02:18:49.390Z,53.9
2017-11-01T02:19:50.804Z,54.1
2017-11-01T02:20:52.222Z,54.1
2017-11-01T02:21:53.640Z,54.0
2017-11-01T02:22:55.061Z,54.2
2017-11-01T02:23:56.472Z,53.9
2017-11-01T02:24:57.883Z,53.8
2017-11-01T02:25:59.303Z,53.9
2017-11-01T02:27:00.716Z,54.1
2017-11-01T02:28:02.129Z,54.4
2017-11-01T02:29:03.543Z,54.2
2017-11-01T02:30:04.959Z,54.0
2017-11-01T02:31:06.371Z,54.3
2017-11-01T02:32:07.797Z,54.1
2017-11-01T02:33:09.202Z,54.2
2017-11-01T02:34:10.627Z,54.1
2017-11-01T02:35:12.032Z,54.3
2017-11-01T02:36:13.447Z,54.4
2017-11-01T02:37:14.867Z,54.0
2017-11-01T02:38:16.277Z,54.0
2017-11-01T02:39:17.693Z,54.2
2017-11-01T02:40:19.593Z,54.7
2017-11-01T02:41:20.888Z,54.5
2017-11-01T02:42:22.304Z,54.6
2017-11-01T02:43:23.717Z,54.8
2017-11-01T02:44:25.133Z,54.5
2017-11-01T02:45:26.547Z,54.5
2017-11-01T02:46:27.973Z,54.5
2017-11-01T02:47:29.385Z,54.3
2017-11-01T02:48:30.806Z,54.5
2017-11-01T02:49:32.230Z,54.6
2017-11-01T02:50:33.647Z,54.6
2017-11-01T02:51:35.065Z,54.4
2017-11-01T02:52:36.480Z,54.3
2017-11-01T02:53:37.895Z,54.3
2017-11-01T02:54:39.307Z,54.4
2017-11-01T02:55:40.723Z,54.3
2017-11-01T02:56:42.138Z,54.5
2017-11-01T02:57:43.555Z,54.2
2017-11-01T02:58:44.968Z,54.4
2017-11-01T02:59:46.386Z,54.3
2017-11-01T03:00:47.804Z,54.5
2017-11-01T03:01:49.217Z,54.6
2017-11-01T03:02:50.634Z,54.2
2017-11-01T03:03:52.048Z,54.4
2017-11-01T03:04:53.464Z,54.6
2017-11-01T03:05:54.878Z,54.3
2017-11-01T03:06:56.296Z,54.4
2017-11-01T03:07:57.723Z,54.4
2017-11-01T03:08:59.141Z,54.3
2017-11-01T03:10:00.555Z,54.4
2017-11-01T03:11:01.971Z,54.7
2017-11-01T03:12:03.386Z,54.4
2017-11-01T03:13:04.801Z,54.6
2017-11-01T03:14:06.216Z,54.5
2017-11-01T03:15:07.631Z,54.4
2017-11-01T03:16:09.045Z,54.4
2017-11-01T03:17:10.457Z,54.2
2017-11-01T03:18:11.875Z,54.4
2017-11-01T03:19:13.291Z,54.4
2017-11-01T03:20:14.711Z,54.2
2017-11-01T03:21:16.129Z,54.2
2017-11-01T03:22:17.542Z,54.2
2017-11-01T03:23:18.954Z,54.5
2017-11-01T03:24:20.370Z,54.4
2017-11-01T03:25:21.784Z,54.8
2017-11-01T03:26:23.197Z,54.2
2017-11-01T03:27:24.615Z,54.3
2017-11-01T03:28:26.027Z,54.5
2017-11-01T03:29:27.447Z,54.8
2017-11-01T03:30:28.868Z,54.3
2017-11-01T03:31:30.271Z,54.7
2017-11-01T03:32:31.698Z,54.7
2017-11-01T03:33:33.107Z,54.4
2017-11-01T03:34:34.525Z,54.5
2017-11-01T03:35:35.940Z,54.7
2017-11-01T03:36:37.354Z,54.4
2017-11-01T03:37:38.770Z,54.9
2017-11-01T03:38:40.185Z,54.7
2017-11-01T03:39:41.597Z,54.7
2017-11-01T03:40:43.014Z,54.8
2017-11-01T03:41:44.429Z,54.8
2017-11-01T03:42:45.845Z,54.4
2017-11-01T03:43:47.261Z,54.7
2017-11-01T03:44:48.675Z,54.4
2017-11-01T03:45:50.102Z,54.2
2017-11-01T03:46:51.522Z,54.7
2017-11-01T03:47:52.934Z,54.3
2017-11-01T03:48:54.350Z,54.5
2017-11-01T03:49:55.769Z,54.5
2017-11-01T03:50:57.186Z,54.7
2017-11-01T03:51:58.606Z,54.6
2017-11-01T03:53:00.023Z,54.6
2017-11-01T03:54:01.443Z,54.8
2017-11-01T03:55:02.858Z,54.5
2017-11-01T03:56:04.268Z,54.9
2017-11-01T03:57:05.685Z,54.8
2017-11-01T03:58:07.100Z,54.5
2017-11-01T03:59:08.516Z,54.7
2017-11-01T04:00:09.931Z,54.8
2017-11-01T04:01:11.343Z,54.7
2017-11-01T04:02:12.820Z,54.8
2017-11-01T04:03:14.241Z,54.5
2017-11-01T04:04:15.656Z,54.7
2017-11-01T04:05:17.074Z,54.8
2017-11-01T04:06:18.493Z,54.5
2017-11-01T04:07:19.906Z,54.8
2017-11-01T04:08:21.319Z,54.7
2017-11-01T04:09:22.733Z,54.5
2017-11-01T04:10:24.147Z,54.8
2017-11-01T04:11:25.563Z,54.7
2017-11-01T04:12:26.979Z,54.7
2017-11-01T04:13:28.391Z,54.8
2017-11-01T04:14:29.807Z,54.6
2017-11-01T04:15:31.222Z,54.7
2017-11-01T04:16:32.642Z,54.8
2017-11-01T04:17:34.060Z,54.6
2017-11-01T04:18:35.475Z,54.8
2017-11-01T04:19:36.894Z,54.4
2017-11-01T04:20:38.307Z,54.5
2017-11-01T04:21:39.723Z,54.6
2017-11-01T04:22:41.137Z,54.6
2017-11-01T04:23:42.553Z,54.5
2017-11-01T04:24:43.967Z,55.0
2017-11-01T04:25:45.380Z,54.7
2017-11-01T04:26:46.796Z,54.6
2017-11-01T04:27:48.217Z,54.4
2017-11-01T04:28:49.625Z,54.6
2017-11-01T04:29:51.040Z,54.6
2017-11-01T04:30:52.453Z,55.0
2017-11-01T04:31:53.870Z,54.7
2017-11-01T04:32:55.285Z,54.8
2017-11-01T04:33:56.698Z,54.6
2017-11-01T04:34:58.115Z,54.5
2017-11-01T04:35:59.536Z,54.6
2017-11-01T04:37:00.943Z,54.7
2017-11-01T04:38:02.358Z,54.8
2017-11-01T04:39:03.776Z,55.0
2017-11-01T04:40:05.188Z,54.8
2017-11-01T04:41:06.601Z,54.9
2017-11-01T04:42:08.017Z,54.5
2017-11-01T04:43:09.433Z,54.6
2017-11-01T04:44:10.851Z,54.8
2017-11-01T04:45:12.268Z,54.8
2017-11-01T04:46:13.746Z,54.7
2017-11-01T04:47:15.157Z,54.7
2017-11-01T04:48:16.569Z,54.8
2017-11-01T04:49:17.985Z,54.8
2017-11-01T04:50:19.398Z,55.0
2017-11-01T04:51:20.810Z,54.7
2017-11-01T04:52:22.222Z,54.8
2017-11-01T04:53:23.641Z,54.8
2017-11-01T04:54:25.054Z,54.6
2017-11-01T04:55:26.470Z,54.7
2017-11-01T04:56:27.883Z,54.7
2017-11-01T04:57:29.297Z,54.9
2017-11-01T04:58:30.711Z,55.1
2017-11-01T04:59:32.127Z,54.7
2017-11-01T05:00:33.541Z,54.9
2017-11-01T05:01:34.956Z,54.9
2017-11-01T05:02:36.372Z,55.1
2017-11-01T05:03:37.791Z,55.0
2017-11-01T05:04:39.203Z,55.4
2017-11-01T05:05:40.622Z,54.8
2017-11-01T05:06:42.037Z,55.4
2017-11-01T05:07:43.453Z,54.8
2017-11-01T05:08:44.867Z,54.8
2017-11-01T05:09:46.284Z,54.7
2017-11-01T05:10:47.695Z,54.9
2017-11-01T05:11:49.111Z,54.7
2017-11-01T05:12:50.524Z,55.2
2017-11-01T05:13:51.941Z,54.8
2017-11-01T05:14:53.358Z,54.9
2017-11-01T05:15:54.778Z,54.8
2017-11-01T05:18:31.712Z,54.7
2017-11-01T05:19:33.130Z,54.6
2017-11-01T05:20:34.547Z,54.8
2017-11-01T05:21:35.964Z,54.8
2017-11-01T05:22:37.383Z,54.4
2017-11-01T05:23:38.800Z,54.4
2017-11-01T05:24:40.215Z,54.6
2017-11-01T05:25:41.628Z,54.4
2017-11-01T05:26:43.049Z,54.4
2017-11-01T05:27:44.465Z,54.0
2017-11-01T05:28:45.883Z,54.0
2017-11-01T05:29:47.297Z,54.0
2017-11-01T05:30:48.718Z,53.9
2017-11-01T05:31:50.137Z,53.4
2017-11-01T05:32:51.559Z,53.7
2017-11-01T05:33:52.973Z,53.8
2017-11-01T05:34:54.391Z,53.8
2017-11-01T05:35:55.807Z,53.1
2017-11-01T05:36:57.228Z,53.0
2017-11-01T05:37:58.662Z,53.2
2017-11-01T05:39:00.081Z,53.5
2017-11-01T05:40:01.522Z,53.5
2017-11-01T05:41:02.916Z,52.9
2017-11-01T05:42:04.332Z,52.6
2017-11-01T05:43:05.773Z,52.6
2017-11-01T05:44:07.195Z,52.3
2017-11-01T05:45:08.598Z,52.5
2017-11-01T05:46:10.014Z,52.6
2017-11-01T05:47:11.429Z,52.9
2017-11-01T05:48:12.845Z,52.9
2017-11-01T05:49:14.261Z,52.2
2017-11-01T05:50:15.676Z,52.6
2017-11-01T05:51:17.092Z,52.5
2017-11-01T05:52:18.510Z,52.3
2017-11-01T05:53:19.925Z,52.3
2017-11-01T05:54:21.338Z,52.0
2017-11-01T05:55:22.753Z,51.9
2017-11-01T05:56:24.175Z,52.0
2017-11-01T05:57:25.591Z,51.9
2017-11-01T05:58:27.010Z,51.8
2017-11-01T05:59:28.427Z,51.5
2017-11-01T06:00:29.855Z,51.6
2017-11-01T06:01:31.273Z,51.5
2017-11-01T06:02:32.690Z,51.6
2017-11-01T06:03:34.108Z,51.6
2017-11-01T06:04:35.525Z,51.7
2017-11-01T06:05:36.945Z,51.8
2017-11-01T06:06:38.368Z,51.5
2017-11-01T06:07:39.784Z,51.7
2017-11-01T06:08:41.201Z,51.8
2017-11-01T06:09:42.613Z,51.8
2017-11-01T06:10:44.033Z,51.9
2017-11-01T06:11:45.450Z,52.0
2017-11-01T06:12:46.867Z,51.5
2017-11-01T06:13:48.289Z,51.9
2017-11-01T06:14:49.705Z,51.4
2017-11-01T06:15:51.121Z,51.0
2017-11-01T06:16:52.535Z,51.1
2017-11-01T06:17:53.953Z,51.2
2017-11-01T06:18:55.368Z,51.2
2017-11-01T06:19:56.786Z,51.2
2017-11-01T06:20:58.197Z,51.3
2017-11-01T06:21:59.616Z,51.1
2017-11-01T06:23:01.031Z,51.2
2017-11-01T06:24:02.453Z,51.1
2017-11-01T06:25:03.867Z,51.1
2017-11-01T06:26:05.282Z,51.2
2017-11-01T06:27:06.700Z,51.1
2017-11-01T06:28:08.116Z,50.8
2017-11-01T06:29:09.541Z,50.8
2017-11-01T06:30:10.952Z,51.2
2017-11-01T06:31:12.370Z,50.9
2017-11-01T06:32:13.872Z,50.9
2017-11-01T06:33:15.288Z,50.8
2017-11-01T06:34:16.702Z,51.1
2017-11-01T06:35:18.120Z,50.9
2017-11-01T06:36:19.535Z,50.7
2017-11-01T06:37:20.955Z,50.9
2017-11-01T06:38:22.371Z,50.6
2017-11-01T06:39:23.786Z,50.8
2017-11-01T06:40:25.201Z,50.6
2017-11-01T06:41:26.619Z,50.9
2017-11-01T06:42:28.039Z,50.7
2017-11-01T06:43:29.459Z,50.7
2017-11-01T06:44:30.883Z,50.9
2017-11-01T06:45:32.294Z,50.9
2017-11-01T06:46:33.714Z,51.0
2017-11-01T06:47:35.130Z,50.9
2017-11-01T06:48:36.547Z,51.0
2017-11-01T06:49:37.962Z,50.6
2017-11-01T06:50:39.381Z,50.5
2017-11-01T06:51:40.800Z,50.8
2017-11-01T06:52:42.216Z,50.7
2017-11-01T06:53:43.639Z,50.9
2017-11-01T06:54:45.060Z,50.8
2017-11-01T06:55:46.471Z,50.7
2017-11-01T06:56:47.889Z,50.6
2017-11-01T06:57:49.305Z,50.8
2017-11-01T06:58:50.719Z,50.2
2017-11-01T06:59:52.158Z,50.5
2017-11-01T07:00:53.574Z,50.4
2017-11-01T07:01:54.993Z,50.6
2017-11-01T07:02:56.407Z,50.6
2017-11-01T07:03:57.842Z,50.5
2017-11-01T07:04:59.255Z,50.5
2017-11-01T07:06:00.671Z,50.7
2017-11-01T07:07:02.086Z,50.6
2017-11-01T07:08:03.503Z,50.6
2017-11-01T07:09:04.918Z,50.5
2017-11-01T07:10:06.334Z,50.1
2017-11-01T07:11:07.752Z,50.2
2017-11-01T07:12:09.168Z,50.2
2017-11-01T07:13:10.584Z,50.3
2017-11-01T07:14:12.003Z,50.2
2017-11-01T07:15:13.421Z,50.1
2017-11-01T07:16:14.841Z,50.3
2017-11-01T07:17:16.261Z,50.2
2017-11-01T07:18:17.680Z,50.2
2017-11-01T07:19:19.100Z,50.2
2017-11-01T07:20:20.516Z,50.1
2017-11-01T07:21:21.943Z,50.2
2017-11-01T07:22:23.358Z,50.2
2017-11-01T07:23:24.776Z,50.2
2017-11-01T07:24:26.194Z,50.3
2017-11-01T07:25:27.612Z,50.3
2017-11-01T07:26:29.029Z,50.2
2017-11-01T07:27:30.447Z,50.1
2017-11-01T07:28:31.864Z,50.3
2017-11-01T07:29:33.283Z,50.2
2017-11-01T07:30:34.698Z,50.0
2017-11-01T07:31:36.120Z,50.5
2017-11-01T07:32:37.558Z,50.2
2017-11-01T07:33:38.971Z,50.2
2017-11-01T07:34:40.395Z,50.1
2017-11-01T07:35:41.812Z,50.1
2017-11-01T07:36:43.228Z,50.2
2017-11-01T07:37:44.645Z,50.1
2017-11-01T07:38:46.065Z,50.2
2017-11-01T07:39:47.491Z,50.1
2017-11-01T07:40:48.899Z,50.2
2017-11-01T07:41:50.340Z,50.1
2017-11-01T07:42:51.758Z,50.2
2017-11-01T07:43:53.175Z,50.0
2017-11-01T07:44:54.593Z,50.3
2017-11-01T07:45:56.012Z,50.1
2017-11-01T07:46:57.430Z,50.3
2017-11-01T07:47:58.855Z,50.2
2017-11-01T07:49:00.273Z,50.3
2017-11-01T07:50:01.692Z,50.3
2017-11-01T07:51:03.113Z,50.1
2017-11-01T07:52:04.530Z,50.2
2017-11-01T07:53:05.959Z,50.2
2017-11-01T07:54:07.377Z,50.2
2017-11-01T07:55:08.795Z,50.3
2017-11-01T07:56:10.212Z,49.9
2017-11-01T07:57:11.628Z,50.1
2017-11-01T07:58:13.047Z,50.2
2017-11-01T07:59:14.465Z,50.0
2017-11-01T08:00:15.883Z,49.9
2017-11-01T08:01:17.301Z,50.1
2017-11-01T08:02:18.720Z,50.2
2017-11-01T08:03:20.142Z,50.0
2017-11-01T08:04:21.565Z,50.2
2017-11-01T08:05:22.982Z,50.2
2017-11-01T08:06:24.398Z,49.9
2017-11-01T08:07:25.822Z,49.9
2017-11-01T08:08:27.238Z,50.2
2017-11-01T08:09:28.654Z,50.2
2017-11-01T08:10:30.075Z,50.2
2017-11-01T08:11:31.493Z,50.5
2017-11-01T08:12:32.911Z,50.3
2017-11-01T08:13:34.334Z,50.3
2017-11-01T08:14:35.753Z,49.7
2017-11-01T08:15:37.173Z,50.0
2017-11-01T08:16:38.593Z,49.9
2017-11-01T08:17:40.011Z,49.9
2017-11-01T08:18:41.430Z,49.8
2017-11-01T08:19:42.847Z,49.9
2017-11-01T08:20:44.265Z,49.7
2017-11-01T08:21:45.685Z,49.9
2017-11-01T08:22:47.124Z,50.0
2017-11-01T08:23:48.523Z,49.9
2017-11-01T08:24:49.944Z,50.3
2017-11-01T08:25:51.358Z,50.1
2017-11-01T08:26:52.781Z,49.8
2017-11-01T08:27:54.193Z,50.4
2017-11-01T08:28:55.611Z,49.8
2017-11-01T08:29:57.032Z,49.9
2017-11-01T08:30:58.447Z,49.5
2017-11-01T08:31:59.875Z,49.9
2017-11-01T08:33:01.289Z,50.0
2017-11-01T08:34:02.707Z,49.7
2017-11-01T08:35:04.130Z,49.8
2017-11-01T08:36:05.534Z,49.9
2017-11-01T08:37:06.971Z,49.7
2017-11-01T08:38:08.390Z,49.7
2017-11-01T08:39:09.810Z,49.8
2017-11-01T08:40:11.228Z,49.9
2017-11-01T08:41:12.645Z,50.0
2017-11-01T08:42:14.063Z,49.7
2017-11-01T08:43:15.481Z,50.0
2017-11-01T08:44:16.906Z,49.7
2017-11-01T08:45:18.326Z,49.6
2017-11-01T08:46:19.745Z,50.1
2017-11-01T08:47:21.162Z,49.5
2017-11-01T08:48:22.580Z,49.4
2017-11-01T08:49:24.003Z,49.2
2017-11-01T08:50:25.423Z,49.2
2017-11-01T08:51:26.840Z,49.3
2017-11-01T08:52:28.268Z,49.3
2017-11-01T08:53:29.676Z,49.3
2017-11-01T08:54:31.095Z,49.3
2017-11-01T08:55:32.514Z,49.2
2017-11-01T08:56:33.934Z,49.2
2017-11-01T08:57:35.352Z,49.5
2017-11-01T08:58:36.772Z,49.4
2017-11-01T08:59:38.195Z,49.2
2017-11-01T09:00:39.612Z,49.6
2017-11-01T09:01:41.030Z,49.7
2017-11-01T09:02:42.454Z,49.6
2017-11-01T09:03:43.866Z,49.7
2017-11-01T09:04:45.293Z,49.5
2017-11-01T09:05:46.704Z,49.4
2017-11-01T09:06:48.119Z,49.3
2017-11-01T09:07:49.540Z,49.7
2017-11-01T09:08:50.959Z,49.6
2017-11-01T09:09:52.393Z,49.8
2017-11-01T09:10:53.814Z,49.1
2017-11-01T09:11:55.233Z,49.2
2017-11-01T09:12:56.649Z,49.2
2017-11-01T09:13:58.076Z,49.6
2017-11-01T09:14:59.502Z,49.4
2017-11-01T09:16:00.919Z,49.2
2017-11-01T09:17:02.344Z,49.3
2017-11-01T09:18:03.802Z,49.4
2017-11-01T09:19:05.233Z,49.4
2017-11-01T09:20:06.658Z,49.6
2017-11-01T09:21:08.083Z,49.4
2017-11-01T09:22:09.519Z,49.3
2017-11-01T09:23:10.939Z,49.2
2017-11-01T09:24:12.358Z,49.5
2017-11-01T09:25:13.780Z,49.4
2017-11-01T09:26:15.257Z,49.0
2017-11-01T09:27:16.678Z,49.4
2017-11-01T09:28:18.097Z,49.2
2017-11-01T09:29:19.516Z,49.0
2017-11-01T09:30:20.932Z,49.3
2017-11-01T09:31:22.353Z,49.5
2017-11-01T09:32:23.775Z,49.1
2017-11-01T09:33:25.191Z,49.4
2017-11-01T09:34:26.627Z,49.5
2017-11-01T09:35:28.047Z,49.3
2017-11-01T09:36:29.472Z,49.2
2017-11-01T09:37:30.890Z,49.0
2017-11-01T09:38:32.310Z,49.3
2017-11-01T09:39:33.728Z,49.3
2017-11-01T09:40:35.144Z,49.3
2017-11-01T09:41:36.565Z,48.8
2017-11-01T09:42:37.985Z,49.3
2017-11-01T09:43:39.404Z,49.4
2017-11-01T09:44:40.822Z,49.4
2017-11-01T09:45:42.249Z,48.8
2017-11-01T09:46:43.662Z,49.4
2017-11-01T09:47:45.076Z,48.7
2017-11-01T09:48:46.494Z,49.2
2017-11-01T09:49:47.911Z,49.1
2017-11-01T09:50:49.332Z,49.5
2017-11-01T09:51:50.752Z,49.5
2017-11-01T09:52:52.171Z,49.5
2017-11-01T09:53:53.591Z,49.5
2017-11-01T09:54:55.009Z,49.6
2017-11-01T09:55:56.464Z,48.5
2017-11-01T09:56:57.845Z,49.1
2017-11-01T09:57:59.264Z,49.6
2017-11-01T09:59:00.685Z,49.0
2017-11-01T10:00:02.105Z,49.6
2017-11-01T10:01:03.528Z,48.8
2017-11-01T10:02:04.986Z,49.4
2017-11-01T10:03:06.406Z,49.5
2017-11-01T10:04:07.826Z,49.1
2017-11-01T10:05:09.245Z,49.5
2017-11-01T10:06:10.673Z,48.9
2017-11-01T10:07:12.092Z,48.8
2017-11-01T10:08:13.510Z,49.0
2017-11-01T10:09:14.929Z,48.9
2017-11-01T10:10:16.350Z,49.0
2017-11-01T10:11:17.779Z,49.2
2017-11-01T10:12:19.201Z,49.2
2017-11-01T10:13:20.623Z,49.1
2017-11-01T10:14:22.045Z,49.2
2017-11-01T10:15:23.458Z,49.1
2017-11-01T10:16:24.878Z,49.2
2017-11-01T10:17:26.299Z,49.1
2017-11-01T10:18:27.718Z,49.2
2017-11-01T10:19:29.143Z,49.1
2017-11-01T10:20:30.555Z,49.1
2017-11-01T10:21:31.973Z,48.4
2017-11-01T10:22:33.393Z,49.0
2017-11-01T10:23:34.811Z,49.1
2017-11-01T10:24:36.229Z,49.2
2017-11-01T10:25:37.649Z,49.2
2017-11-01T10:26:39.070Z,49.1
2017-11-01T10:27:40.490Z,48.3
2017-11-01T10:28:41.911Z,49.1
2017-11-01T10:29:43.330Z,49.2
2017-11-01T10:30:44.749Z,49.2
2017-11-01T10:31:46.171Z,49.1
2017-11-01T10:32:47.590Z,48.5
2017-11-01T10:33:49.009Z,49.2
2017-11-01T10:34:50.428Z,48.4
2017-11-01T10:35:51.849Z,48.6
2017-11-01T10:36:53.267Z,48.8
2017-11-01T10:37:54.685Z,48.9
2017-11-01T10:38:56.107Z,48.8
2017-11-01T10:39:57.524Z,48.9
2017-11-01T10:40:58.947Z,48.6
2017-11-01T10:42:00.368Z,48.6
2017-11-01T10:43:01.788Z,48.6
2017-11-01T10:44:03.210Z,48.8
2017-11-01T10:45:04.639Z,48.6
2017-11-01T10:46:06.058Z,48.7
2017-11-01T10:47:07.478Z,48.6
2017-11-01T10:48:08.898Z,48.6
2017-11-01T10:49:10.320Z,48.7
2017-11-01T10:50:11.744Z,48.3
2017-11-01T10:51:13.163Z,48.3
2017-11-01T10:52:14.582Z,48.6
2017-11-01T10:53:16.002Z,48.7
2017-11-01T10:54:17.424Z,48.6
2017-11-01T10:55:18.841Z,48.6
2017-11-01T10:56:20.261Z,48.3
2017-11-01T10:57:21.695Z,48.5
2017-11-01T10:58:23.104Z,48.7
2017-11-01T10:59:24.523Z,48.4
2017-11-01T11:00:25.949Z,48.3
2017-11-01T11:01:27.369Z,48.3
2017-11-01T11:02:28.789Z,48.5
2017-11-01T11:03:30.207Z,48.3
2017-11-01T11:04:31.624Z,48.3
2017-11-01T11:05:33.044Z,48.1
2017-11-01T11:06:34.462Z,48.3
2017-11-01T11:07:35.884Z,48.3
2017-11-01T11:08:37.302Z,48.0
2017-11-01T11:09:38.720Z,48.4
2017-11-01T11:10:40.149Z,48.3
2017-11-01T11:11:41.564Z,48.5
2017-11-01T11:12:42.987Z,48.2
2017-11-01T11:13:44.407Z,48.4
2017-11-01T11:14:45.827Z,48.2
2017-11-01T11:15:47.246Z,48.3
2017-11-01T11:16:48.663Z,48.4
2017-11-01T11:17:50.083Z,48.3
2017-11-01T11:18:51.503Z,48.4
2017-11-01T11:19:52.921Z,48.5
2017-11-01T11:20:54.350Z,48.5
2017-11-01T11:21:55.771Z,48.3
2017-11-01T11:22:57.191Z,48.2
2017-11-01T11:23:58.611Z,48.3
2017-11-01T11:25:00.030Z,48.6
2017-11-01T11:26:01.450Z,48.6
2017-11-01T11:27:02.868Z,48.8
2017-11-01T11:28:04.310Z,48.3
2017-11-01T11:29:05.730Z,48.7
2017-11-01T11:30:07.153Z,48.5
2017-11-01T11:31:08.574Z,48.3
2017-11-01T11:32:09.996Z,48.4
2017-11-01T11:33:11.411Z,48.2
2017-11-01T11:34:12.828Z,48.3
2017-11-01T11:35:14.248Z,48.3
2017-11-01T11:36:15.659Z,48.4
2017-11-01T11:37:17.086Z,48.3
2017-11-01T11:38:18.505Z,48.4
2017-11-01T11:39:19.924Z,48.2
2017-11-01T11:40:21.341Z,48.1
2017-11-01T11:41:22.758Z,48.3
2017-11-01T11:42:24.180Z,48.3
2017-11-01T11:43:25.597Z,48.5
2017-11-01T11:44:27.019Z,48.4
2017-11-01T11:45:28.440Z,48.3
2017-11-01T11:46:29.864Z,48.5
2017-11-01T11:47:31.305Z,48.3
2017-11-01T11:48:32.722Z,48.9
2017-11-01T11:49:34.135Z,48.3
2017-11-01T11:50:35.552Z,48.7
2017-11-01T11:51:36.974Z,48.3
2017-11-01T11:52:38.395Z,48.4
2017-11-01T11:53:39.816Z,48.7
2017-11-01T11:54:41.248Z,48.1
2017-11-01T11:55:42.664Z,48.5
2017-11-01T11:56:44.085Z,48.2
2017-11-01T11:57:45.507Z,48.4
2017-11-01T11:58:46.921Z,48.2
2017-11-01T11:59:48.340Z,48.3
2017-11-01T12:00:49.758Z,48.3
2017-11-01T12:01:51.176Z,48.4
2017-11-01T12:02:52.595Z,48.2
2017-11-01T12:03:54.018Z,48.3
2017-11-01T12:04:55.435Z,48.3
2017-11-01T12:05:56.854Z,48.4
2017-11-01T12:06:58.273Z,48.3
2017-11-01T12:07:59.691Z,48.5
2017-11-01T12:09:01.117Z,48.3
2017-11-01T12:10:02.536Z,48.3
2017-11-01T12:11:03.960Z,48.3
2017-11-01T12:12:05.383Z,48.1
2017-11-01T12:13:06.805Z,48.1
2017-11-01T12:14:08.223Z,48.3
2017-11-01T12:15:09.645Z,48.3
2017-11-01T12:16:11.067Z,48.4
2017-11-01T12:17:12.493Z,48.3
2017-11-01T12:18:13.907Z,48.3
2017-11-01T12:19:15.324Z,48.1
2017-11-01T12:20:16.814Z,48.6
2017-11-01T12:21:18.234Z,48.0
2017-11-01T12:22:19.701Z,48.2
2017-11-01T12:23:21.123Z,48.1
2017-11-01T12:24:22.671Z,47.9
2017-11-01T12:25:24.089Z,47.8
2017-11-01T12:26:25.509Z,47.9
2017-11-01T12:27:26.931Z,47.9
2017-11-01T12:28:28.347Z,47.7
2017-11-01T12:29:29.766Z,47.8
2017-11-01T12:30:31.186Z,47.8
2017-11-01T12:31:32.607Z,47.9
2017-11-01T12:32:34.028Z,47.9
2017-11-01T12:33:35.451Z,47.5
2017-11-01T12:34:36.871Z,47.4
2017-11-01T12:35:38.290Z,47.9
2017-11-01T12:36:39.711Z,47.5
2017-11-01T12:37:41.134Z,47.8
2017-11-01T12:38:42.552Z,47.7
2017-11-01T12:39:43.971Z,47.7
2017-11-01T12:40:45.391Z,47.8
2017-11-01T12:41:46.812Z,47.7
2017-11-01T12:42:48.244Z,48.0
2017-11-01T12:43:49.667Z,47.8
2017-11-01T12:44:51.088Z,48.0
2017-11-01T12:45:52.507Z,47.7
2017-11-01T12:46:53.928Z,47.8
2017-11-01T12:47:55.349Z,47.8
2017-11-01T12:48:56.768Z,47.7
2017-11-01T12:49:58.188Z,47.4
2017-11-01T12:50:59.609Z,47.7
2017-11-01T12:52:01.030Z,47.3
2017-11-01T12:53:02.452Z,47.4
2017-11-01T12:54:03.872Z,46.9
2017-11-01T12:55:05.296Z,47.3
2017-11-01T12:56:06.716Z,46.6
2017-11-01T12:57:08.137Z,47.4
2017-11-01T12:58:09.560Z,47.3
2017-11-01T12:59:10.980Z,47.4
2017-11-01T13:00:12.401Z,47.2
2017-11-01T13:01:13.820Z,47.2
2017-11-01T13:02:15.243Z,47.3
2017-11-01T13:03:16.665Z,46.8
2017-11-01T13:04:18.089Z,47.1
2017-11-01T13:05:19.509Z,47.1
2017-11-01T13:06:20.932Z,47.2
2017-11-01T13:07:22.351Z,47.2
2017-11-01T13:08:23.779Z,47.2
2017-11-01T13:09:25.199Z,47.1
2017-11-01T13:10:26.617Z,47.3
2017-11-01T13:11:28.039Z,46.8
2017-11-01T13:12:29.461Z,46.9
2017-11-01T13:13:30.883Z,46.8
2017-11-01T13:14:32.315Z,47.0
2017-11-01T13:15:33.737Z,46.9
2017-11-01T13:16:35.157Z,47.0
2017-11-01T13:17:36.590Z,46.8
2017-11-01T13:18:38.113Z,47.0
2017-11-01T13:19:39.479Z,46.6
2017-11-01T13:20:40.903Z,46.9
2017-11-01T13:21:42.321Z,46.8
2017-11-01T13:22:43.767Z,46.7
2017-11-01T13:23:45.200Z,46.3
2017-11-01T13:24:46.635Z,46.9
2017-11-01T13:25:48.056Z,46.6
2017-11-01T13:26:49.555Z,46.3
2017-11-01T13:27:50.973Z,46.7
2017-11-01T13:28:52.393Z,46.7
2017-11-01T13:29:53.843Z,46.7
2017-11-01T13:30:55.265Z,46.6
2017-11-01T13:31:56.685Z,46.6
2017-11-01T13:32:58.110Z,46.7
2017-11-01T13:33:59.532Z,46.8
2017-11-01T13:35:00.955Z,46.5
2017-11-01T13:36:02.381Z,46.3
2017-11-01T13:37:03.803Z,46.7
2017-11-01T13:38:05.255Z,46.7
2017-11-01T13:39:06.750Z,46.5